Time;durP1;ratioP1;P1;durP2;ratioP2;P2;SDS_P1;SDS_P2;PMS_P1;PMS_P2;Temp;Humidity;BMP_temperature;BMP_pressure;BME280_temperature;BME280_humidity;BME280_pressure;Samples;Min_cycle;Max_cycle;Signal;HPM_P1;HPM_P2
2023/07/02 00:01:41;;;;;;;;;;;;;;;8.67;72.94;94860.50;5022523;28;20515;-67
2023/07/02 00:04:08;;;;;;;;;;;;;;;8.43;73.65;94853.63;5019644;28;19951;-66
2023/07/02 00:06:40;;;;;;;;;;;;;;;8.98;71.94;94853.34;5020919;28;19968;-67
2023/07/02 00:09:10;;;;;;;;;;;;;;;8.97;71.73;94858.84;5020882;28;19956;-67
2023/07/02 00:11:35;;;;;;;;;;;;;;;9.20;70.47;94851.53;5018894;28;19928;-67
2023/07/02 00:14:00;;;;;;;;;;;;;;;8.54;73.95;94849.72;5020811;28;19927;-65
2023/07/02 00:16:25;;;;;;;;;;;;;;;8.68;72.52;94853.34;5021227;28;19947;-66
2023/07/02 00:18:53;;;;;;;;;;;;;;;8.56;73.23;94851.16;5021261;28;19931;-67
2023/07/02 00:21:20;;;;;;;;;;;;;;;8.16;75.52;94858.59;5019610;28;19948;-67
2023/07/02 00:23:45;;;;;;;;;;;;;;;8.15;76.38;94855.09;5021736;28;20428;-66
2023/07/02 00:26:10;;;;;;;;;;;;;;;8.53;75.04;94856.00;5020932;28;19937;-66
2023/07/02 00:28:35;;;;;;;;;;;;;;;8.81;73.14;94858.00;5020220;28;19948;-67
2023/07/02 00:31:02;;;;;;;;;;;;;;;7.99;75.98;94858.72;5021530;28;20417;-67
2023/07/02 00:33:28;;;;;;;;;;;;;;;7.57;78.03;94854.75;5020008;28;19927;-66
2023/07/02 00:35:53;;;;;;;;;;;;;;;7.86;77.66;94853.22;5020194;28;19951;-67
2023/07/02 00:38:19;;;;;;;;;;;;;;;8.11;76.57;94853.81;5021908;28;19921;-67
2023/07/02 00:40:44;;;;;;;;;;;;;;;7.43;79.58;94843.09;5018725;28;19921;-65
2023/07/02 00:43:12;;;;;;;;;;;;;;;7.51;79.08;94849.16;5019565;28;20443;-66
2023/07/02 00:45:39;;;;;;;;;;;;;;;8.18;76.30;94856.56;5019569;28;19965;-67
2023/07/02 00:48:05;;;;;;;;;;;;;;;8.08;76.98;94850.69;5016498;28;19917;-67
2023/07/02 00:50:30;;;;;;;;;;;;;;;7.92;77.20;94848.03;5017849;28;19917;-66
2023/07/02 00:52:55;;;;;;;;;;;;;;;8.57;75.14;94841.41;5002438;28;19975;-67
2023/07/02 00:55:21;;;;;;;;;;;;;;;8.42;74.92;94842.22;5003374;28;20260;-67
2023/07/02 00:57:46;;;;;;;;;;;;;;;8.13;75.71;94845.69;5020825;28;19957;-67
2023/07/02 01:00:13;;;;;;;;;;;;;;;8.58;74.30;94837.72;5021423;28;19953;-70
2023/07/02 01:05:06;;;;;;;;;;;;;;;8.19;76.23;94842.28;5018256;28;20018;-68
2023/07/02 01:07:31;;;;;;;;;;;;;;;8.42;75.58;94847.53;5021378;28;19962;-67
2023/07/02 01:09:56;;;;;;;;;;;;;;;8.80;73.23;94846.56;5021839;28;19998;-68
2023/07/02 01:12:22;;;;;;;;;;;;;;;9.00;72.11;94848.66;5003720;28;19967;-68
2023/07/02 01:14:48;;;;;;;;;;;;;;;8.77;73.11;94846.94;5004501;28;19947;-69
2023/07/02 01:17:13;;;;;;;;;;;;;;;9.02;71.51;94845.81;5006005;28;19909;-68
2023/07/02 01:19:52;;;;;;;;;;;;;;;9.23;70.59;94845.03;5021991;28;19944;-68
2023/07/02 01:22:18;;;;;;;;;;;;;;;9.12;70.30;94842.88;5019633;28;19921;-67
2023/07/02 01:24:43;;;;;;;;;;;;;;;8.96;70.93;94839.44;5005405;28;20021;-67
2023/07/02 01:27:10;;;;;;;;;;;;;;;9.13;70.73;94848.00;5007624;28;19953;-68
2023/07/02 01:29:36;;;;;;;;;;;;;;;9.46;69.44;94844.03;5026110;28;19964;-68
2023/07/02 01:32:01;;;;;;;;;;;;;;;9.35;69.24;94844.53;5024385;28;19958;-68
2023/07/02 01:34:27;;;;;;;;;;;;;;;9.70;68.08;94834.81;5026347;28;19929;-69
2023/07/02 01:36:52;;;;;;;;;;;;;;;10.03;66.73;94843.28;5005811;28;20094;-69
2023/07/02 01:39:17;;;;;;;;;;;;;;;10.35;65.50;94838.38;5025615;28;19955;-68
2023/07/02 01:41:44;;;;;;;;;;;;;;;10.19;65.84;94850.16;5026054;28;19943;-69
2023/07/02 01:44:10;;;;;;;;;;;;;;;10.73;64.12;94837.97;5007437;28;19997;-69
2023/07/02 01:46:35;;;;;;;;;;;;;;;10.93;63.24;94836.41;5026256;28;20536;-68
2023/07/02 01:49:00;;;;;;;;;;;;;;;11.28;62.60;94846.19;5025039;28;19917;-68
2023/07/02 01:51:26;;;;;;;;;;;;;;;11.12;62.67;94846.31;5025031;28;19953;-68
2023/07/02 01:53:51;;;;;;;;;;;;;;;11.37;61.52;94843.13;5007913;28;19921;-68
2023/07/02 01:56:16;;;;;;;;;;;;;;;11.87;59.77;94846.47;5007062;28;19921;-68
2023/07/02 01:58:41;;;;;;;;;;;;;;;11.64;60.35;94847.66;5025268;28;19955;-68
2023/07/02 02:01:06;;;;;;;;;;;;;;;12.04;59.27;94852.19;5025452;28;19921;-69
2023/07/02 02:03:32;;;;;;;;;;;;;;;11.05;60.88;94852.63;5024997;28;19925;-68
2023/07/02 02:05:57;;;;;;;;;;;;;;;11.86;59.60;94850.97;5025205;28;20357;-68
2023/07/02 02:08:22;;;;;;;;;;;;;;;11.83;59.39;94851.38;5022689;28;20301;-68
2023/07/02 02:10:47;;;;;;;;;;;;;;;11.74;59.65;94850.75;5021781;28;19921;-68
2023/07/02 02:13:13;;;;;;;;;;;;;;;11.76;59.71;94855.88;5024575;28;19921;-68
2023/07/02 02:15:38;;;;;;;;;;;;;;;11.51;60.00;94851.13;5024006;28;19916;-68
2023/07/02 02:18:04;;;;;;;;;;;;;;;11.33;59.82;94860.53;5022205;28;20251;-68
2023/07/02 02:20:29;;;;;;;;;;;;;;;11.53;60.51;94859.75;5021539;28;20020;-68
2023/07/02 02:22:54;;;;;;;;;;;;;;;11.53;60.28;94857.09;5022828;28;19917;-68
2023/07/02 02:25:20;;;;;;;;;;;;;;;11.23;60.86;94857.44;5023684;28;19917;-68
2023/07/02 02:27:45;;;;;;;;;;;;;;;11.50;59.32;94854.84;5024091;28;19924;-68
2023/07/02 02:30:10;;;;;;;;;;;;;;;11.98;59.08;94859.19;5022741;28;19917;-68
2023/07/02 02:32:37;;;;;;;;;;;;;;;11.66;59.39;94863.47;5000412;28;20494;-68
2023/07/02 02:35:02;;;;;;;;;;;;;;;11.68;59.37;94858.72;5024111;28;20015;-68
2023/07/02 02:37:27;;;;;;;;;;;;;;;11.38;59.98;94866.09;5018042;28;20035;-68
2023/07/02 02:39:52;;;;;;;;;;;;;;;11.03;60.87;94865.31;5006447;28;19917;-68
2023/07/02 02:42:18;;;;;;;;;;;;;;;11.53;59.81;94859.75;5024220;28;19924;-69
2023/07/02 02:44:43;;;;;;;;;;;;;;;10.67;62.19;94860.06;5023436;28;19947;-68
2023/07/02 02:47:08;;;;;;;;;;;;;;;11.31;60.58;94857.25;5024251;28;19917;-68
2023/07/02 02:49:34;;;;;;;;;;;;;;;10.78;62.15;94858.66;5024131;28;20369;-68
2023/07/02 02:51:59;;;;;;;;;;;;;;;10.99;61.10;94860.38;5005693;28;20392;-68
2023/07/02 02:54:24;;;;;;;;;;;;;;;10.61;62.83;94856.34;5023780;28;19951;-68
2023/07/02 02:56:49;;;;;;;;;;;;;;;10.68;62.38;94848.38;4987855;28;19917;-68
2023/07/02 02:59:15;;;;;;;;;;;;;;;10.26;63.63;94859.00;5024141;28;19927;-68
2023/07/02 03:01:40;;;;;;;;;;;;;;;10.68;62.58;94860.88;5023881;28;20024;-68
2023/07/02 03:04:08;;;;;;;;;;;;;;;11.04;61.16;94859.78;5022018;28;19929;-68
2023/07/02 03:06:33;;;;;;;;;;;;;;;11.20;60.70;94855.16;5006374;28;20365;-68
2023/07/02 03:08:58;;;;;;;;;;;;;;;11.30;60.18;94858.28;5022892;28;19917;-68
2023/07/02 03:11:23;;;;;;;;;;;;;;;11.33;59.90;94860.53;5023052;28;19913;-68
2023/07/02 03:13:49;;;;;;;;;;;;;;;11.33;60.00;94867.72;5024604;28;20001;-68
2023/07/02 03:16:14;;;;;;;;;;;;;;;10.84;60.90;94867.69;5006353;28;19921;-68
2023/07/02 03:18:39;;;;;;;;;;;;;;;10.39;62.90;94870.72;5005599;28;19913;-68
2023/07/02 03:21:04;;;;;;;;;;;;;;;11.00;61.11;94866.53;5023703;28;20300;-68
2023/07/02 03:23:30;;;;;;;;;;;;;;;11.20;60.36;94860.50;5023124;28;19959;-68
2023/07/02 03:25:55;;;;;;;;;;;;;;;11.11;59.22;94866.00;5022301;28;19921;-69
2023/07/02 03:28:20;;;;;;;;;;;;;;;11.10;60.21;94863.53;5023208;28;19971;-68
2023/07/02 03:30:45;;;;;;;;;;;;;;;10.99;60.19;94856.91;5020054;28;19923;-69
2023/07/02 03:33:11;;;;;;;;;;;;;;;11.34;58.51;94856.84;5021060;28;19913;-68
2023/07/02 03:35:36;;;;;;;;;;;;;;;11.63;57.75;94849.50;5021256;28;19917;-69
2023/07/02 03:38:02;;;;;;;;;;;;;;;11.21;59.18;94854.97;5024176;28;19913;-69
2023/07/02 03:40:27;;;;;;;;;;;;;;;11.53;57.76;94857.09;5021881;28;20336;-68
2023/07/02 03:42:52;;;;;;;;;;;;;;;11.82;56.92;94851.56;5023000;28;20289;-68
2023/07/02 03:45:18;;;;;;;;;;;;;;;11.41;57.90;94856.03;5020716;28;19909;-69
2023/07/02 03:47:43;;;;;;;;;;;;;;;11.38;57.92;94860.75;5023401;28;19921;-68
2023/07/02 03:50:09;;;;;;;;;;;;;;;11.33;58.01;94870.38;5022653;28;19916;-68
2023/07/02 03:52:34;;;;;;;;;;;;;;;10.59;60.75;94870.88;5022693;28;20408;-69
2023/07/02 03:54:59;;;;;;;;;;;;;;;11.18;58.61;94873.22;5021936;28;20300;-68
2023/07/02 03:57:26;;;;;;;;;;;;;;;10.27;60.09;94870.47;5023590;28;19975;-69
2023/07/02 03:59:51;;;;;;;;;;;;;;;11.03;58.99;94867.97;5022671;28;19921;-69
2023/07/02 04:02:16;;;;;;;;;;;;;;;10.19;59.66;94887.38;5020987;28;19963;-68
2023/07/02 04:04:41;;;;;;;;;;;;;;;10.81;59.43;94886.75;5022796;28;19959;-68
2023/07/02 04:07:07;;;;;;;;;;;;;;;10.82;58.84;94886.56;5022377;28;20007;-68
2023/07/02 04:09:32;;;;;;;;;;;;;;;11.31;57.29;94875.91;5022549;28;19913;-68
2023/07/02 04:11:58;;;;;;;;;;;;;;;10.66;58.28;94889.53;5022965;28;20489;-68
2023/07/02 04:14:23;;;;;;;;;;;;;;;10.82;58.69;94899.88;5004013;28;19921;-68
2023/07/02 04:16:48;;;;;;;;;;;;;;;11.03;57.76;94900.78;5004982;28;20289;-68
2023/07/02 04:19:14;;;;;;;;;;;;;;;10.46;58.56;94909.69;5020815;28;19951;-69
2023/07/02 04:21:39;;;;;;;;;;;;;;;10.59;58.91;94911.63;5021429;28;19931;-69
2023/07/02 04:24:04;;;;;;;;;;;;;;;10.58;59.20;94917.94;5018898;28;20369;-68
2023/07/02 04:26:30;;;;;;;;;;;;;;;10.89;58.16;94918.53;5023472;28;19917;-68
2023/07/02 04:28:55;;;;;;;;;;;;;;;10.53;58.11;94927.53;5020611;28;20012;-68
2023/07/02 04:31:21;;;;;;;;;;;;;;;10.68;58.37;94922.91;5020718;28;19932;-68
2023/07/02 04:33:46;;;;;;;;;;;;;;;11.05;57.54;94909.38;5003838;28;20025;-68
2023/07/02 04:36:12;;;;;;;;;;;;;;;10.78;58.08;94919.91;5021820;28;19924;-68
2023/07/02 04:38:39;;;;;;;;;;;;;;;10.75;57.83;94926.44;5020668;28;19923;-68
2023/07/02 04:41:04;;;;;;;;;;;;;;;10.60;57.96;94923.91;5022327;28;19935;-68
2023/07/02 04:43:31;;;;;;;;;;;;;;;10.90;57.59;94927.34;5022038;28;19956;-68
2023/07/02 04:45:56;;;;;;;;;;;;;;;10.92;57.23;94920.81;5022013;28;19960;-68
2023/07/02 04:48:21;;;;;;;;;;;;;;;10.27;59.36;94932.47;5002865;28;20329;-68
2023/07/02 04:50:46;;;;;;;;;;;;;;;10.92;57.68;94935.97;5021574;28;19958;-68
2023/07/02 04:53:12;;;;;;;;;;;;;;;10.42;58.84;94943.03;5019711;28;19953;-68
2023/07/02 04:55:37;;;;;;;;;;;;;;;10.38;59.35;94940.94;5019632;28;20384;-69
2023/07/02 04:58:02;;;;;;;;;;;;;;;11.35;56.36;94933.09;5021305;28;19990;-69
2023/07/02 05:00:27;;;;;;;;;;;;;;;10.97;56.88;94939.69;5024971;28;20297;-68
2023/07/02 05:02:53;;;;;;;;;;;;;;;10.00;60.01;94942.03;5024133;28;19916;-69
2023/07/02 05:05:18;;;;;;;;;;;;;;;10.83;57.19;94938.78;5023853;28;20432;-69
2023/07/02 05:07:43;;;;;;;;;;;;;;;11.42;55.82;94934.97;5024633;28;19913;-69
2023/07/02 05:10:09;;;;;;;;;;;;;;;11.17;55.59;94941.66;5025312;28;19921;-68
2023/07/02 05:12:34;;;;;;;;;;;;;;;10.51;57.96;94954.38;5024717;28;20294;-68
2023/07/02 05:14:59;;;;;;;;;;;;;;;10.16;58.81;94955.09;5025134;28;20008;-68
2023/07/02 05:17:25;;;;;;;;;;;;;;;10.58;57.62;94943.75;5006169;28;19972;-68
2023/07/02 05:19:50;;;;;;;;;;;;;;;10.50;57.74;94952.69;5025784;28;20412;-68
2023/07/02 05:22:15;;;;;;;;;;;;;;;10.97;56.98;94945.00;5025201;28;19940;-68
2023/07/02 05:24:40;;;;;;;;;;;;;;;10.70;56.64;94950.19;5008092;28;20020;-68
2023/07/02 05:27:06;;;;;;;;;;;;;;;10.75;56.45;94949.59;5025374;28;19913;-68
2023/07/02 05:29:31;;;;;;;;;;;;;;;10.10;59.64;94958.53;4991468;28;19966;-69
2023/07/02 05:31:56;;;;;;;;;;;;;;;10.70;57.06;94954.66;5024259;28;19958;-69
2023/07/02 05:34:21;;;;;;;;;;;;;;;10.64;58.17;94955.47;5024210;28;20342;-69
2023/07/02 05:36:47;;;;;;;;;;;;;;;10.97;56.73;94960.16;5025881;28;19913;-69
2023/07/02 05:39:12;;;;;;;;;;;;;;;10.62;57.40;94953.78;5024728;28;19951;-69
2023/07/02 05:41:37;;;;;;;;;;;;;;;11.00;56.57;94959.75;5025554;28;19917;-69
2023/07/02 05:44:03;;;;;;;;;;;;;;;11.00;56.07;94955.28;5007474;28;19924;-68
2023/07/02 05:46:28;;;;;;;;;;;;;;;10.56;57.97;94964.41;5023717;28;20008;-69
2023/07/02 05:48:57;;;;;;;;;;;;;;;10.93;57.66;94964.22;5023538;28;19916;-68
2023/07/02 05:51:22;;;;;;;;;;;;;;;10.89;57.61;94969.13;5025320;28;20055;-68
2023/07/02 05:53:47;;;;;;;;;;;;;;;10.95;57.51;94968.34;5007869;28;20433;-68
2023/07/02 05:56:12;;;;;;;;;;;;;;;10.73;57.95;94967.59;5024246;28;19966;-69
2023/07/02 05:58:38;;;;;;;;;;;;;;;10.60;58.36;94971.81;5007697;28;20319;-69
2023/07/02 06:01:05;;;;;;;;;;;;;;;10.99;56.97;94974.09;5007045;28;19979;-68
2023/07/02 06:03:30;;;;;;;;;;;;;;;11.13;56.10;94967.84;5025059;28;19921;-69
2023/07/02 06:05:55;;;;;;;;;;;;;;;10.94;57.25;94976.50;5023555;28;20397;-69
2023/07/02 06:08:20;;;;;;;;;;;;;;;10.86;57.11;94969.53;5025359;28;19925;-68
2023/07/02 06:10:46;;;;;;;;;;;;;;;10.70;57.54;94979.47;5023737;28;19939;-68
2023/07/02 06:13:11;;;;;;;;;;;;;;;10.78;57.76;94983.78;5025072;28;20506;-68
2023/07/02 06:15:37;;;;;;;;;;;;;;;11.11;56.50;94980.56;5023627;28;19963;-68
2023/07/02 06:18:02;;;;;;;;;;;;;;;11.18;56.02;94979.78;5024574;28;20004;-68
2023/07/02 06:20:27;;;;;;;;;;;;;;;11.03;57.20;94983.34;5005901;28;19916;-68
2023/07/02 06:22:52;;;;;;;;;;;;;;;11.29;56.46;94979.19;5025227;28;19971;-68
2023/07/02 06:25:18;;;;;;;;;;;;;;;10.98;57.44;94991.13;5025649;28;20261;-69
2023/07/02 06:27:43;;;;;;;;;;;;;;;10.94;57.83;94981.84;5024159;28;19959;-69
2023/07/02 06:30:08;;;;;;;;;;;;;;;11.48;56.57;94982.13;5025347;28;19959;-68
2023/07/02 06:32:33;;;;;;;;;;;;;;;12.20;54.59;94980.91;5024912;28;20552;-69
2023/07/02 06:34:59;;;;;;;;;;;;;;;11.94;54.81;94979.81;5022548;28;19994;-69
2023/07/02 06:37:24;;;;;;;;;;;;;;;11.52;55.66;94986.03;5024824;28;19959;-69
2023/07/02 06:39:49;;;;;;;;;;;;;;;11.22;57.46;94986.34;5023617;28;19921;-68
2023/07/02 06:42:14;;;;;;;;;;;;;;;11.02;57.39;94989.69;5024743;28;19924;-69
2023/07/02 06:44:40;;;;;;;;;;;;;;;10.15;61.13;94997.84;5023174;28;19917;-69
2023/07/02 06:47:05;;;;;;;;;;;;;;;10.22;59.86;95004.88;5006760;28;19951;-69
2023/07/02 06:49:31;;;;;;;;;;;;;;;9.38;63.45;95006.22;5007030;28;20919;-69
2023/07/02 06:51:56;;;;;;;;;;;;;;;9.18;64.75;95006.78;5023957;28;19917;-69
2023/07/02 06:54:21;;;;;;;;;;;;;;;9.21;65.66;95014.34;5023868;28;19958;-68
2023/07/02 06:56:46;;;;;;;;;;;;;;;9.21;65.11;95019.66;5023688;28;19958;-69
2023/07/02 06:59:12;;;;;;;;;;;;;;;9.55;63.61;95006.78;5020981;28;19954;-69
2023/07/02 07:01:37;;;;;;;;;;;;;;;9.66;63.50;95014.28;5024077;28;19944;-68
2023/07/02 07:04:02;;;;;;;;;;;;;;;9.28;64.51;95025.91;5023855;28;20546;-68
2023/07/02 07:06:28;;;;;;;;;;;;;;;9.14;65.28;95018.75;5024652;28;20393;-68
2023/07/02 07:08:53;;;;;;;;;;;;;;;9.43;64.34;95030.38;5022543;28;20020;-68
2023/07/02 07:11:19;;;;;;;;;;;;;;;9.91;63.32;95029.91;5023065;28;19951;-68
2023/07/02 07:13:44;;;;;;;;;;;;;;;9.43;63.78;95033.03;5022951;28;19913;-69
2023/07/02 07:16:09;;;;;;;;;;;;;;;9.98;62.84;95022.00;5022805;28;19921;-68
2023/07/02 07:18:34;;;;;;;;;;;;;;;10.41;62.42;95029.22;5005841;28;19919;-68
2023/07/02 07:21:00;;;;;;;;;;;;;;;10.72;60.72;95027.19;5023067;28;20021;-69
2023/07/02 07:23:25;;;;;;;;;;;;;;;10.49;61.64;95028.22;5019230;28;19917;-68
2023/07/02 07:25:50;;;;;;;;;;;;;;;9.87;63.18;95033.97;5023859;28;19936;-70
2023/07/02 07:28:16;;;;;;;;;;;;;;;9.48;64.72;95030.63;5022935;28;20022;-69
2023/07/02 07:30:42;;;;;;;;;;;;;;;9.50;64.97;95035.78;5021676;28;19921;-68
2023/07/02 07:33:07;;;;;;;;;;;;;;;9.03;65.47;95042.13;5019480;28;19913;-69
2023/07/02 07:35:32;;;;;;;;;;;;;;;8.82;67.45;95042.81;5022507;28;20400;-69
2023/07/02 07:37:58;;;;;;;;;;;;;;;8.70;67.82;95045.06;5021597;28;20047;-69
2023/07/02 07:40:23;;;;;;;;;;;;;;;8.72;67.92;95055.50;5022547;28;19925;-69
2023/07/02 07:42:48;;;;;;;;;;;;;;;8.76;67.20;95048.81;5023633;28;19928;-69
2023/07/02 07:45:13;;;;;;;;;;;;;;;9.50;65.94;95049.91;5021987;28;19919;-69
2023/07/02 07:47:39;;;;;;;;;;;;;;;9.86;64.26;95045.59;5004402;28;19971;-69
2023/07/02 07:50:09;;;;;;;;;;;;;;;10.02;63.02;95033.91;5005727;28;20435;-68
2023/07/02 07:52:36;;;;;;;;;;;;;;;9.87;64.22;95046.44;5022345;28;19948;-68
2023/07/02 07:55:01;;;;;;;;;;;;;;;10.21;63.11;95040.47;5005293;28;19913;-69
2023/07/02 07:57:26;;;;;;;;;;;;;;;10.23;61.58;95040.28;5023391;28;19924;-68
2023/07/02 07:59:51;;;;;;;;;;;;;;;10.52;60.60;95043.81;5021685;28;19921;-68
2023/07/02 08:02:16;;;;;;;;;;;;;;;9.83;61.20;95040.66;5019911;28;20035;-68
2023/07/02 08:04:42;;;;;;;;;;;;;;;9.89;61.86;95039.91;5022842;28;20531;-68
2023/07/02 08:07:09;;;;;;;;;;;;;;;10.10;60.30;95044.44;5005123;28;19924;-68
2023/07/02 08:09:34;;;;;;;;;;;;;;;10.51;60.29;95052.00;5005689;28;19916;-69
2023/07/02 08:11:59;;;;;;;;;;;;;;;11.10;58.52;95040.19;5003371;28;19962;-69
2023/07/02 08:14:24;;;;;;;;;;;;;;;11.69;56.37;95041.72;5023352;28;19970;-69
2023/07/02 08:16:51;;;;;;;;;;;;;;;10.79;58.34;95053.84;5021951;28;19928;-68
2023/07/02 08:19:16;;;;;;;;;;;;;;;11.70;57.32;95043.34;5022361;28;20031;-69
2023/07/02 08:21:41;;;;;;;;;;;;;;;12.15;54.55;95051.72;5003108;28;19959;-69
2023/07/02 08:24:07;;;;;;;;;;;;;;;12.30;54.96;95055.25;5022990;28;20679;-69
2023/07/02 08:26:32;;;;;;;;;;;;;;;12.06;55.38;95057.38;5022120;28;20035;-69
2023/07/02 08:28:57;;;;;;;;;;;;;;;12.74;53.14;95053.00;5021476;28;19917;-69
2023/07/02 08:31:22;;;;;;;;;;;;;;;12.53;50.56;95076.22;5020087;28;20376;-68
2023/07/02 08:33:48;;;;;;;;;;;;;;;12.53;53.54;95052.19;5020039;28;19915;-68
2023/07/02 08:36:16;;;;;;;;;;;;;;;12.31;54.10;95059.56;5020769;28;20054;-68
2023/07/02 08:38:43;;;;;;;;;;;;;;;12.50;53.57;95060.59;5002590;28;20008;-69
2023/07/02 08:41:08;;;;;;;;;;;;;;;11.50;55.39;95070.75;5021164;28;19978;-69
2023/07/02 08:43:33;;;;;;;;;;;;;;;11.57;55.65;95073.44;5001369;28;20539;-68
2023/07/02 08:45:58;;;;;;;;;;;;;;;11.29;55.92;95069.78;5004204;28;19962;-68
2023/07/02 08:48:26;;;;;;;;;;;;;;;11.06;55.19;95076.19;5021461;28;20046;-68
2023/07/02 08:50:51;;;;;;;;;;;;;;;11.05;56.43;95077.19;5002470;28;19928;-68
2023/07/02 08:53:16;;;;;;;;;;;;;;;11.12;55.76;95078.09;5021472;28;19909;-68
2023/07/02 08:55:41;;;;;;;;;;;;;;;10.91;55.67;95084.25;5021564;28;20332;-68
2023/07/02 08:58:07;;;;;;;;;;;;;;;11.40;54.99;95076.44;5022343;28;19913;-69
2023/07/02 09:00:36;;;;;;;;;;;;;;;11.46;51.82;95085.47;5001638;28;19951;-69
2023/07/02 09:03:15;;;;;;;;;;;;;;;12.25;51.91;95075.34;5005123;28;19917;-70
2023/07/02 09:05:52;;;;;;;;;;;;;;;12.23;51.03;95079.22;5003352;28;19947;-68
2023/07/02 09:08:27;;;;;;;;;;;;;;;12.46;50.36;95083.38;5001837;28;20017;-69
2023/07/02 09:10:52;;;;;;;;;;;;;;;12.61;51.73;95080.53;5020160;28;19978;-68
2023/07/02 09:13:18;;;;;;;;;;;;;;;13.04;50.52;95080.16;5019788;28;19921;-69
2023/07/02 09:15:43;;;;;;;;;;;;;;;13.13;49.30;95082.63;5020302;28;19928;-69
2023/07/02 09:18:15;;;;;;;;;;;;;;;13.77;46.30;95074.03;5021645;28;19948;-69
2023/07/02 09:20:40;;;;;;;;;;;;;;;13.41;46.40;95078.84;5021101;28;20293;-69
2023/07/02 09:23:05;;;;;;;;;;;;;;;13.62;46.86;95091.16;5020814;28;19923;-68
2023/07/02 09:25:36;;;;;;;;;;;;;;;13.63;46.02;95083.97;5005105;28;20451;-69
2023/07/02 09:28:01;;;;;;;;;;;;;;;12.82;47.83;95089.38;5020628;28;20354;-68
2023/07/02 09:30:26;;;;;;;;;;;;;;;12.89;46.18;95090.22;5020359;28;19975;-68
2023/07/02 09:32:53;;;;;;;;;;;;;;;12.97;45.43;95084.66;5021728;28;20071;-68
2023/07/02 09:35:19;;;;;;;;;;;;;;;12.97;45.86;95092.66;5021113;28;20005;-68
2023/07/02 09:37:44;;;;;;;;;;;;;;;12.66;46.98;95097.59;5016041;28;19928;-68
2023/07/02 09:40:09;;;;;;;;;;;;;;;13.17;45.93;95089.19;4999764;28;19929;-68
2023/07/02 09:42:35;;;;;;;;;;;;;;;12.85;45.64;95092.44;5020394;28;20465;-68
2023/07/02 09:45:00;;;;;;;;;;;;;;;12.99;45.90;95093.28;5000854;28;19917;-69
2023/07/02 09:47:25;;;;;;;;;;;;;;;13.11;45.14;95090.00;5004464;28;19927;-69
2023/07/02 09:49:55;;;;;;;;;;;;;;;13.22;45.24;95097.41;5006303;28;19909;-68
2023/07/02 09:52:20;;;;;;;;;;;;;;;13.38;43.85;95096.16;5021718;28;19991;-68
2023/07/02 09:54:45;;;;;;;;;;;;;;;13.98;44.24;95098.88;5006171;28;20808;-68
2023/07/02 09:57:11;;;;;;;;;;;;;;;12.89;44.15;95091.00;5022705;28;19913;-68
2023/07/02 09:59:37;;;;;;;;;;;;;;;12.35;46.06;95115.00;5004234;28;19917;-67
2023/07/02 10:02:02;;;;;;;;;;;;;;;12.58;46.35;95097.78;5021044;28;19929;-68
2023/07/02 10:04:28;;;;;;;;;;;;;;;13.07;43.49;95104.81;5006474;28;19959;-68
2023/07/02 10:06:54;;;;;;;;;;;;;;;13.49;44.93;95092.00;5021182;28;19970;-68
2023/07/02 10:09:19;;;;;;;;;;;;;;;14.04;42.87;95103.38;5005726;28;20265;-68
2023/07/02 10:11:45;;;;;;;;;;;;;;;13.17;44.47;95110.56;5004549;28;19925;-68
2023/07/02 10:14:10;;;;;;;;;;;;;;;12.83;45.34;95109.72;5005983;28;20000;-68
2023/07/02 10:16:48;;;;;;;;;;;;;;;12.75;45.80;95113.41;5022848;28;19921;-68
2023/07/02 10:19:13;;;;;;;;;;;;;;;12.44;45.33;95110.28;5005155;28;19924;-67
2023/07/02 10:21:38;;;;;;;;;;;;;;;12.91;44.67;95101.50;5022424;28;20022;-68
2023/07/02 10:24:13;;;;;;;;;;;;;;;12.84;46.94;95106.84;5003668;28;19920;-68
2023/07/02 10:26:39;;;;;;;;;;;;;;;12.44;45.26;95107.59;5005625;28;19924;-68
2023/07/02 10:29:05;;;;;;;;;;;;;;;12.96;44.99;95096.38;5004063;28;19917;-67
2023/07/02 10:31:32;;;;;;;;;;;;;;;13.08;45.64;95107.28;5004823;28;20499;-68
2023/07/02 10:33:57;;;;;;;;;;;;;;;12.22;45.62;95105.09;5021541;28;19974;-67
2023/07/02 10:36:23;;;;;;;;;;;;;;;12.60;45.30;95097.56;5020690;28;20369;-67
2023/07/02 10:38:48;;;;;;;;;;;;;;;13.66;42.87;95097.72;5002500;28;19974;-68
2023/07/02 10:41:22;;;;;;;;;;;;;;;13.29;43.50;95114.25;5003633;28;19916;-68
2023/07/02 10:43:48;;;;;;;;;;;;;;;13.32;44.48;95102.31;5022979;28;19940;-68
2023/07/02 10:46:18;;;;;;;;;;;;;;;13.70;43.30;95103.47;5002790;28;20443;-68
2023/07/02 10:48:50;;;;;;;;;;;;;;;13.45;44.50;95104.16;5002146;28;20012;-67
2023/07/02 10:51:15;;;;;;;;;;;;;;;12.95;44.42;95117.94;5021333;28;19921;-68
2023/07/02 10:53:41;;;;;;;;;;;;;;;12.74;45.81;95109.91;5003916;28;19944;-67
2023/07/02 10:56:06;;;;;;;;;;;;;;;12.49;45.60;95107.00;5016709;28;19917;-67
2023/07/02 10:58:31;;;;;;;;;;;;;;;12.30;46.05;95109.44;5018583;28;19917;-67
2023/07/02 11:00:56;;;;;;;;;;;;;;;12.48;45.30;95113.38;5019375;28;20372;-67
2023/07/02 11:03:22;;;;;;;;;;;;;;;12.72;46.33;95111.16;5022231;28;20023;-67
2023/07/02 11:05:48;;;;;;;;;;;;;;;13.81;45.41;95102.00;5019030;28;19928;-68
2023/07/02 11:08:13;;;;;;;;;;;;;;;13.74;43.48;95104.72;5001308;28;20019;-67
2023/07/02 11:10:38;;;;;;;;;;;;;;;13.61;45.29;95116.25;5004292;28;19920;-68
2023/07/02 11:13:10;;;;;;;;;;;;;;;13.60;43.49;95117.28;5022107;28;20767;-68
2023/07/02 11:15:35;;;;;;;;;;;;;;;13.82;43.18;95100.97;5019104;28;19921;-67
2023/07/02 11:18:08;;;;;;;;;;;;;;;14.13;43.46;95107.44;5002483;28;20369;-67
2023/07/02 11:20:33;;;;;;;;;;;;;;;13.80;43.76;95113.72;5019151;28;19917;-67
2023/07/02 11:22:59;;;;;;;;;;;;;;;13.70;42.25;95116.84;5021408;28;20396;-67
2023/07/02 11:25:24;;;;;;;;;;;;;;;13.67;43.35;95114.59;5020871;28;19921;-67
2023/07/02 11:27:49;;;;;;;;;;;;;;;13.67;43.31;95117.28;5021814;28;19913;-67
2023/07/02 11:30:14;;;;;;;;;;;;;;;13.57;44.80;95121.19;5021678;28;19926;-67
2023/07/02 11:32:48;;;;;;;;;;;;;;;13.41;44.12;95135.00;5021226;28;19924;-67
2023/07/02 11:35:13;;;;;;;;;;;;;;;12.58;46.19;95124.47;5002964;28;19936;-67
2023/07/02 11:37:38;;;;;;;;;;;;;;;12.92;47.10;95120.00;5019530;28;19917;-67
2023/07/02 11:40:04;;;;;;;;;;;;;;;12.66;47.37;95139.50;5021945;28;20409;-68
2023/07/02 11:42:29;;;;;;;;;;;;;;;12.40;47.80;95128.56;5021091;28;20354;-67
2023/07/02 11:44:55;;;;;;;;;;;;;;;12.15;48.27;95149.63;5020593;28;19959;-68
2023/07/02 11:47:20;;;;;;;;;;;;;;;12.20;48.71;95130.34;5021249;28;19958;-68
2023/07/02 11:49:45;;;;;;;;;;;;;;;12.72;47.80;95135.19;5021132;28;19955;-68
2023/07/02 11:52:12;;;;;;;;;;;;;;;12.39;48.17;95136.75;5002172;28;19952;-68
2023/07/02 11:54:38;;;;;;;;;;;;;;;12.43;48.98;95130.00;5017356;28;19951;-67
2023/07/02 11:57:03;;;;;;;;;;;;;;;12.17;48.71;95146.75;5020482;28;20015;-67
2023/07/02 11:59:28;;;;;;;;;;;;;;;12.05;49.57;95146.47;5020782;28;20000;-67
2023/07/02 12:01:54;;;;;;;;;;;;;;;12.96;47.88;95136.44;5019809;28;19975;-67
2023/07/02 12:04:19;;;;;;;;;;;;;;;13.79;45.67;95125.47;5021097;28;20479;-67
2023/07/02 12:06:44;;;;;;;;;;;;;;;14.14;45.06;95130.50;4986224;28;19927;-68
2023/07/02 12:09:10;;;;;;;;;;;;;;;14.32;44.04;95134.34;5019414;28;19913;-67
2023/07/02 12:11:35;;;;;;;;;;;;;;;14.31;43.67;95141.56;5018281;28;19948;-67
2023/07/02 12:14:01;;;;;;;;;;;;;;;13.84;44.38;95136.38;5020296;28;20465;-67
2023/07/02 12:16:26;;;;;;;;;;;;;;;13.85;45.84;95139.84;5021002;28;20016;-68
2023/07/02 12:18:51;;;;;;;;;;;;;;;13.80;45.25;95140.47;5018773;28;20100;-67
2023/07/02 12:21:18;;;;;;;;;;;;;;;13.55;44.70;95151.84;5018858;28;20351;-67
2023/07/02 12:23:43;;;;;;;;;;;;;;;13.33;46.32;95141.41;5020851;28;19967;-67
2023/07/02 12:26:09;;;;;;;;;;;;;;;13.11;46.45;95140.78;5020332;28;19921;-67
2023/07/02 12:28:34;;;;;;;;;;;;;;;13.68;43.86;95157.19;5019579;28;19917;-67
2023/07/02 12:30:59;;;;;;;;;;;;;;;14.31;42.84;95136.19;5018337;28;20011;-67
2023/07/02 12:33:24;;;;;;;;;;;;;;;14.72;41.95;95125.22;5016507;28;19920;-69
2023/07/02 12:35:49;;;;;;;;;;;;;;;14.58;43.20;95135.22;5000687;28;20281;-67
2023/07/02 12:38:15;;;;;;;;;;;;;;;15.23;41.31;95130.69;5019956;28;19986;-68
2023/07/02 12:40:40;;;;;;;;;;;;;;;14.65;41.40;95136.00;5020320;28;19949;-67
2023/07/02 12:43:06;;;;;;;;;;;;;;;14.66;41.17;95137.66;5002110;28;19913;-67